Time;durP1;ratioP1;P1;durP2;ratioP2;P2;SDS_P1;SDS_P2;PMS_P1;PMS_P2;Temp;Humidity;BMP_temperature;BMP_pressure;BME280_temperature;BME280_humidity;BME280_pressure;Samples;Min_cycle;Max_cycle;Signal;HPM_P1;HPM_P2
2022/10/24 00:00:32;;;;;;;7.05;2.38;;;14.60;99.90;;;;;;6245978;22;20012;-84
2022/10/24 00:02:58;;;;;;;8.25;2.00;;;14.60;99.90;;;;;;6220027;22;20012;-84
2022/10/24 00:05:25;;;;;;;8.55;1.95;;;14.60;99.90;;;;;;6245027;22;20019;-84
2022/10/24 00:07:51;;;;;;;7.07;1.55;;;14.60;99.90;;;;;;6245587;22;20011;-84
2022/10/24 00:10:17;;;;;;;7.63;2.22;;;14.60;99.90;;;;;;6245466;22;20034;-84
2022/10/24 00:12:44;;;;;;;5.47;1.60;;;14.60;99.90;;;;;;6220083;22;20015;-84
2022/10/24 00:15:09;;;;;;;6.80;2.25;;;14.60;99.90;;;;;;6245067;22;20443;-84
2022/10/24 00:17:35;;;;;;;4.47;1.55;;;14.60;99.90;;;;;;6244867;22;20012;-84
2022/10/24 00:20:05;;;;;;;8.23;1.90;;;14.60;99.90;;;;;;6245354;22;20523;-85
2022/10/24 00:22:31;;;;;;;6.57;1.20;;;14.60;99.90;;;;;;6245457;22;20008;-84
2022/10/24 00:24:57;;;;;;;5.55;1.55;;;14.60;99.90;;;;;;6244646;22;20986;-84
2022/10/24 00:27:23;;;;;;;6.60;1.50;;;14.50;99.90;;;;;;6245345;22;20023;-84
2022/10/24 00:29:49;;;;;;;6.00;2.38;;;14.50;99.90;;;;;;6219614;22;20019;-84
2022/10/24 00:32:14;;;;;;;5.82;1.40;;;14.50;99.90;;;;;;6273008;22;20022;-84
2022/10/24 00:34:40;;;;;;;9.60;1.70;;;14.50;99.90;;;;;;6244155;22;20439;-84
2022/10/24 00:37:06;;;;;;;4.18;1.50;;;14.40;99.90;;;;;;6244954;22;20464;-84
2022/10/24 00:39:31;;;;;;;6.20;1.40;;;14.50;99.90;;;;;;6244758;22;20015;-84
2022/10/24 00:42:00;;;;;;;6.90;1.80;;;14.60;99.90;;;;;;6245423;22;20343;-85
2022/10/24 00:44:31;;;;;;;7.57;1.60;;;14.60;99.90;;;;;;6245275;22;20440;-84
2022/10/24 00:47:02;;;;;;;4.35;1.70;;;14.50;99.90;;;;;;6245514;22;20022;-84
2022/10/24 00:49:40;;;;;;;7.03;1.40;;;14.50;99.90;;;;;;6245163;22;20070;-84
2022/10/24 00:52:08;;;;;;;7.72;1.60;;;14.50;99.90;;;;;;6246170;22;20533;-84
2022/10/24 00:54:36;;;;;;;4.53;1.20;;;14.50;99.90;;;;;;6272523;22;20332;-84
2022/10/24 00:57:09;;;;;;;6.85;1.60;;;14.40;99.90;;;;;;6245682;22;20097;-84
2022/10/24 00:59:37;;;;;;;4.72;1.40;;;14.50;99.90;;;;;;6273073;22;20026;-84
2022/10/24 01:02:03;;;;;;;6.60;1.40;;;14.50;99.90;;;;;;6245394;22;20011;-84
2022/10/24 01:04:30;;;;;;;7.03;1.20;;;14.40;99.90;;;;;;6244076;22;20383;-84
2022/10/24 01:07:13;;;;;;;7.20;1.33;;;14.40;99.90;;;;;;6244828;22;20008;-85
2022/10/24 01:10:20;;;;;;;7.57;1.55;;;14.40;99.90;;;;;;6272350;22;20065;-85
2022/10/24 01:13:10;;;;;;;4.82;1.33;;;14.40;99.90;;;;;;6218885;22;20073;-84
2022/10/24 01:16:13;;;;;;;8.07;1.52;;;14.40;99.90;;;;;;6219388;22;20440;-84
2022/10/24 01:18:56;;;;;;;6.45;1.85;;;14.30;99.90;;;;;;6243867;22;20027;-84
2022/10/24 01:21:29;;;;;;;8.85;1.50;;;14.40;99.90;;;;;;6244774;22;20460;-84
2022/10/24 01:24:29;;;;;;;5.43;1.83;;;14.50;99.90;;;;;;6271671;22;20332;-85
2022/10/24 01:27:18;;;;;;;5.93;1.60;;;14.50;99.90;;;;;;6272081;22;20011;-84
2022/10/24 01:29:58;;;;;;;8.95;1.50;;;14.60;99.90;;;;;;6243715;22;20087;-85
2022/10/24 01:32:33;;;;;;;8.13;1.42;;;14.60;99.90;;;;;;6271441;22;20015;-84
2022/10/24 01:35:10;;;;;;;8.40;2.10;;;14.60;99.90;;;;;;6271592;22;20011;-84
2022/10/24 01:37:51;;;;;;;8.18;1.60;;;14.70;99.90;;;;;;6242505;22;20064;-84
2022/10/24 01:40:23;;;;;;;8.52;1.60;;;14.70;99.90;;;;;;6243788;22;20069;-84
2022/10/24 01:42:52;;;;;;;9.88;1.90;;;14.80;99.90;;;;;;6245227;22;20012;-84
2022/10/24 01:45:24;;;;;;;6.25;1.90;;;14.90;99.90;;;;;;6271790;22;20027;-84
2022/10/24 01:47:55;;;;;;;8.93;1.95;;;14.80;99.90;;;;;;6271608;22;20363;-85
2022/10/24 01:50:23;;;;;;;4.63;1.50;;;14.90;99.90;;;;;;6244530;22;20027;-84
2022/10/24 01:52:50;;;;;;;8.50;1.75;;;14.90;99.90;;;;;;6245129;22;20015;-84
2022/10/24 01:55:16;;;;;;;7.10;2.00;;;14.90;99.90;;;;;;6244219;22;20043;-84
2022/10/24 01:57:42;;;;;;;9.93;1.98;;;14.90;99.90;;;;;;6244278;22;20019;-85
2022/10/24 02:00:13;;;;;;;6.32;1.88;;;15.00;99.90;;;;;;6245440;22;20102;-84
2022/10/24 02:02:44;;;;;;;9.70;1.70;;;15.00;99.90;;;;;;6243853;22;20019;-84
2022/10/24 02:05:24;;;;;;;10.98;2.25;;;15.00;99.90;;;;;;6272216;22;20047;-84
2022/10/24 02:07:59;;;;;;;9.23;1.88;;;15.10;99.90;;;;;;6244265;22;20019;-84
2022/10/24 02:10:29;;;;;;;6.43;1.40;;;15.10;99.90;;;;;;6272185;22;20183;-84
2022/10/24 02:13:02;;;;;;;7.25;2.17;;;15.10;99.90;;;;;;6244845;22;20022;-85
2022/10/24 02:15:33;;;;;;;6.45;1.92;;;15.10;99.90;;;;;;6271125;22;20054;-84
2022/10/24 02:18:00;;;;;;;8.30;2.05;;;15.10;99.90;;;;;;6274070;22;20015;-85
2022/10/24 02:20:38;;;;;;;6.75;1.70;;;15.10;99.90;;;;;;6221788;22;20016;-85
2022/10/24 02:23:26;;;;;;;5.95;1.83;;;15.00;99.90;;;;;;6247317;22;20034;-85
2022/10/24 02:25:55;;;;;;;8.50;2.00;;;15.10;99.90;;;;;;6246772;22;20018;-84
2022/10/24 02:28:25;;;;;;;7.45;1.73;;;15.10;99.90;;;;;;6220953;22;20091;-85
2022/10/24 02:31:01;;;;;;;9.73;1.73;;;15.10;99.90;;;;;;6245641;22;20012;-84
2022/10/24 02:33:29;;;;;;;9.75;1.90;;;15.10;99.90;;;;;;6274127;22;20314;-85
2022/10/24 02:35:56;;;;;;;5.68;1.60;;;15.10;99.90;;;;;;6221436;22;20402;-84
2022/10/24 02:38:31;;;;;;;6.28;1.90;;;15.10;99.90;;;;;;6246535;22;20019;-84
2022/10/24 02:40:59;;;;;;;8.57;2.00;;;15.20;99.90;;;;;;6246529;22;20213;-84
2022/10/24 02:43:27;;;;;;;6.70;1.70;;;15.20;99.90;;;;;;6273573;22;20012;-85
2022/10/24 02:45:55;;;;;;;7.63;2.42;;;15.20;99.90;;;;;;6220751;22;20012;-84
2022/10/24 02:48:26;;;;;;;13.45;2.28;;;15.20;99.90;;;;;;6273354;22;20008;-84
2022/10/24 02:50:52;;;;;;;8.95;1.98;;;15.30;99.90;;;;;;6246825;22;20020;-84
2022/10/24 02:53:20;;;;;;;10.55;2.08;;;15.50;99.90;;;;;;6274059;22;20072;-85
2022/10/24 02:55:47;;;;;;;5.00;1.42;;;15.30;99.90;;;;;;6273265;22;20015;-84
2022/10/24 02:58:13;;;;;;;9.77;1.77;;;15.30;99.90;;;;;;6246322;22;20030;-84
2022/10/24 03:00:38;;;;;;;9.40;1.90;;;15.30;99.90;;;;;;6244932;22;20394;-84
2022/10/24 03:03:04;;;;;;;7.70;1.75;;;15.30;99.90;;;;;;6273446;22;20012;-84
2022/10/24 03:05:29;;;;;;;7.65;1.80;;;15.40;99.90;;;;;;6273475;22;20012;-85
2022/10/24 03:07:55;;;;;;;7.88;2.00;;;15.30;99.90;;;;;;6272300;22;20019;-84
2022/10/24 03:10:21;;;;;;;8.38;2.03;;;15.60;99.90;;;;;;6245820;22;20023;-84
2022/10/24 03:12:46;;;;;;;8.35;2.10;;;15.30;99.90;;;;;;6246527;22;20094;-85
2022/10/24 03:15:12;;;;;;;7.95;2.28;;;15.30;99.90;;;;;;6245091;22;20094;-85
2022/10/24 03:17:38;;;;;;;10.00;1.92;;;15.30;99.90;;;;;;6273218;22;20012;-84
2022/10/24 03:20:04;;;;;;;6.95;1.55;;;15.30;99.90;;;;;;6245780;22;20015;-84
2022/10/24 03:22:29;;;;;;;6.95;1.90;;;15.30;99.90;;;;;;6245530;22;20100;-84
2022/10/24 03:24:55;;;;;;;6.70;1.60;;;15.30;99.90;;;;;;6245679;22;20039;-85
2022/10/24 03:27:21;;;;;;;5.80;2.05;;;15.30;99.90;;;;;;6245638;22;20324;-85
2022/10/24 03:29:47;;;;;;;5.63;1.55;;;15.30;99.90;;;;;;6243928;22;20019;-85
2022/10/24 03:32:13;;;;;;;8.32;2.13;;;15.30;99.90;;;;;;6245598;22;20337;-85
2022/10/24 03:34:38;;;;;;;7.70;2.10;;;15.30;99.90;;;;;;6273145;22;20011;-84
2022/10/24 03:37:04;;;;;;;8.90;1.92;;;15.30;99.90;;;;;;6272929;22;20082;-84
2022/10/24 03:39:30;;;;;;;8.43;1.75;;;15.30;99.90;;;;;;6245662;22;20130;-84
2022/10/24 03:41:55;;;;;;;7.32;2.03;;;15.30;99.90;;;;;;6273571;22;20316;-84
2022/10/24 03:44:21;;;;;;;8.43;1.90;;;15.20;99.90;;;;;;6272256;22;20038;-84
2022/10/24 03:46:46;;;;;;;14.13;2.20;;;15.40;99.90;;;;;;6273358;22;20008;-84
2022/10/24 03:49:12;;;;;;;7.72;2.28;;;15.20;99.90;;;;;;6246087;22;20340;-84
2022/10/24 03:51:37;;;;;;;8.32;1.98;;;15.20;99.90;;;;;;6246385;22;20020;-84
2022/10/24 03:54:03;;;;;;;8.15;2.38;;;15.30;99.90;;;;;;6273112;22;20016;-85
2022/10/24 03:56:29;;;;;;;10.18;2.97;;;15.20;99.90;;;;;;6271304;22;20008;-84
2022/10/24 03:58:55;;;;;;;6.38;2.30;;;15.20;99.90;;;;;;6245082;22;20448;-85
2022/10/24 04:01:21;;;;;;;11.07;2.33;;;15.20;99.90;;;;;;6245275;22;20024;-84
2022/10/24 04:03:48;;;;;;;8.13;2.33;;;15.20;99.90;;;;;;6245497;22;20020;-85
2022/10/24 04:06:14;;;;;;;9.00;2.30;;;15.20;99.90;;;;;;6245149;22;20018;-84
2022/10/24 04:08:40;;;;;;;7.00;2.17;;;15.20;99.90;;;;;;6245914;22;20398;-84
2022/10/24 04:11:06;;;;;;;8.32;2.45;;;15.20;99.90;;;;;;6245688;22;20012;-85
2022/10/24 04:13:32;;;;;;;6.93;2.20;;;15.20;99.90;;;;;;6244797;22;20091;-85
2022/10/24 04:15:58;;;;;;;8.65;1.95;;;15.10;99.90;;;;;;6245161;22;20027;-84
2022/10/24 04:18:24;;;;;;;6.10;2.10;;;15.10;99.90;;;;;;6244867;22;20015;-84
2022/10/24 04:20:49;;;;;;;10.27;1.95;;;15.00;99.90;;;;;;6272760;22;20004;-84
2022/10/24 04:23:15;;;;;;;8.90;1.92;;;15.00;99.90;;;;;;6245101;22;20011;-84
2022/10/24 04:25:41;;;;;;;6.70;2.30;;;15.00;99.90;;;;;;6244614;22;20046;-84
2022/10/24 04:28:07;;;;;;;5.88;2.00;;;14.90;99.90;;;;;;6245347;22;20022;-85
2022/10/24 04:30:33;;;;;;;9.38;2.67;;;14.80;99.90;;;;;;6244979;22;20015;-85
2022/10/24 04:32:58;;;;;;;6.07;2.20;;;14.80;99.90;;;;;;6272722;22;20034;-84
2022/10/24 04:35:24;;;;;;;9.27;2.22;;;14.80;99.90;;;;;;6244807;22;20123;-85
2022/10/24 04:37:51;;;;;;;8.57;2.00;;;14.70;99.90;;;;;;6244579;22;20020;-85
2022/10/24 04:40:17;;;;;;;6.80;2.35;;;15.00;99.90;;;;;;6244575;22;20031;-85
2022/10/24 04:42:42;;;;;;;7.65;1.98;;;14.60;99.90;;;;;;6244849;22;20390;-84
2022/10/24 04:45:09;;;;;;;4.43;1.70;;;14.60;99.90;;;;;;6244685;22;20019;-85
2022/10/24 04:47:35;;;;;;;12.00;2.25;;;14.50;99.90;;;;;;6245246;22;20451;-84
2022/10/24 04:50:00;;;;;;;5.30;1.70;;;14.50;99.90;;;;;;6244284;22;20008;-84
2022/10/24 04:52:26;;;;;;;7.15;2.00;;;14.50;99.90;;;;;;6244004;22;20070;-84
2022/10/24 04:54:53;;;;;;;8.73;2.40;;;14.50;99.90;;;;;;6244228;22;20444;-84
2022/10/24 04:57:19;;;;;;;5.88;1.60;;;14.40;99.90;;;;;;6243377;22;20340;-85
2022/10/24 04:59:44;;;;;;;9.13;2.00;;;14.30;99.90;;;;;;6244598;22;20171;-84
2022/10/24 05:02:10;;;;;;;7.22;2.15;;;14.30;99.90;;;;;;6244758;22;20051;-85
2022/10/24 05:04:35;;;;;;;6.15;2.30;;;14.30;99.90;;;;;;6271800;22;20047;-85
2022/10/24 05:07:01;;;;;;;8.38;1.92;;;14.20;99.90;;;;;;6244706;22;20007;-84
2022/10/24 05:09:27;;;;;;;6.30;1.88;;;14.20;99.90;;;;;;6271475;22;20020;-84
2022/10/24 05:11:56;;;;;;;7.95;2.10;;;14.20;99.90;;;;;;6244623;22;20102;-84
2022/10/24 05:14:22;;;;;;;9.48;1.98;;;14.20;99.90;;;;;;6245287;22;20445;-84
2022/10/24 05:16:48;;;;;;;5.30;1.90;;;14.10;99.90;;;;;;6244116;22;20077;-85
2022/10/24 05:19:15;;;;;;;8.82;3.17;;;14.10;99.90;;;;;;6271471;22;20363;-84
2022/10/24 05:21:41;;;;;;;6.93;2.03;;;14.40;99.90;;;;;;6244030;22;20130;-84
2022/10/24 05:24:06;;;;;;;5.15;1.75;;;14.10;99.90;;;;;;6271382;22;20043;-84
2022/10/24 05:26:32;;;;;;;7.40;2.08;;;14.10;99.90;;;;;;6244084;22;20024;-84
2022/10/24 05:28:58;;;;;;;10.25;2.33;;;14.20;99.90;;;;;;6271265;22;20019;-85
2022/10/24 05:31:23;;;;;;;7.75;1.50;;;14.20;99.90;;;;;;6244356;22;20046;-84
2022/10/24 05:33:49;;;;;;;6.20;1.60;;;14.20;99.90;;;;;;6219012;22;20033;-84
2022/10/24 05:36:14;;;;;;;7.82;1.63;;;14.20;99.90;;;;;;6244475;22;20015;-83
2022/10/24 05:38:40;;;;;;;12.48;2.35;;;14.20;99.90;;;;;;6270022;22;20068;-82
2022/10/24 05:41:05;;;;;;;6.55;1.88;;;14.20;99.90;;;;;;6270638;22;20015;-82
2022/10/24 05:43:31;;;;;;;6.70;2.08;;;14.20;99.90;;;;;;6271511;22;20016;-83
2022/10/24 05:45:57;;;;;;;5.78;1.23;;;14.20;99.90;;;;;;6271108;22;20012;-83
2022/10/24 05:48:22;;;;;;;11.90;1.88;;;14.20;99.90;;;;;;6271923;22;20023;-83
2022/10/24 05:50:48;;;;;;;4.60;1.30;;;14.20;99.90;;;;;;6271185;22;20086;-82
2022/10/24 05:53:13;;;;;;;12.32;1.67;;;14.30;99.90;;;;;;6272885;22;20442;-82
2022/10/24 05:55:39;;;;;;;8.15;1.70;;;14.30;99.90;;;;;;6246124;22;20015;-84
2022/10/24 05:58:05;;;;;;;7.70;1.60;;;14.20;99.90;;;;;;6245399;22;20489;-85
2022/10/24 06:00:32;;;;;;;7.10;1.55;;;14.30;99.90;;;;;;6273599;22;20335;-83
2022/10/24 06:02:59;;;;;;;9.38;1.67;;;14.30;99.90;;;;;;6273016;22;20030;-83
2022/10/24 06:05:24;;;;;;;9.32;1.67;;;14.30;99.90;;;;;;6245551;22;20004;-83
2022/10/24 06:07:50;;;;;;;7.15;1.98;;;14.30;99.90;;;;;;6271243;22;20058;-83
2022/10/24 06:10:15;;;;;;;6.53;1.17;;;14.30;99.90;;;;;;6273469;22;20018;-83
2022/10/24 06:12:41;;;;;;;8.95;1.30;;;14.40;99.90;;;;;;6245887;22;20008;-83
2022/10/24 06:15:07;;;;;;;9.77;1.77;;;14.40;99.90;;;;;;6273352;22;20011;-83
2022/10/24 06:17:34;;;;;;;7.22;1.67;;;14.50;99.90;;;;;;6246055;22;20102;-83
2022/10/24 06:20:00;;;;;;;8.48;1.42;;;14.50;99.90;;;;;;6273065;22;20011;-86
2022/10/24 06:22:28;;;;;;;7.68;1.42;;;14.50;99.90;;;;;;6271841;22;20374;-85
2022/10/24 06:24:54;;;;;;;9.30;1.42;;;14.60;99.90;;;;;;6272273;22;20436;-83
2022/10/24 06:27:20;;;;;;;5.68;1.15;;;14.60;99.90;;;;;;6272961;22;20004;-83
2022/10/24 06:29:45;;;;;;;7.88;1.38;;;14.60;99.90;;;;;;6245903;22;20038;-83
2022/10/24 06:32:11;;;;;;;11.77;2.55;;;14.60;99.90;;;;;;6273004;22;20252;-83
2022/10/24 06:34:36;;;;;;;8.02;1.27;;;14.60;99.90;;;;;;6272548;22;20035;-83
2022/10/24 06:37:02;;;;;;;11.27;1.20;;;14.70;99.90;;;;;;6244884;22;20012;-83
2022/10/24 06:39:28;;;;;;;4.60;1.00;;;14.70;99.90;;;;;;6220961;22;20015;-85
2022/10/24 06:41:53;;;;;;;5.35;1.30;;;14.60;99.90;;;;;;6245841;22;20015;-84
2022/10/24 06:44:19;;;;;;;6.30;1.58;;;14.70;99.90;;;;;;6221055;22;20015;-84
2022/10/24 06:46:45;;;;;;;8.93;1.30;;;14.60;99.90;;;;;;6245867;22;20010;-84
2022/10/24 06:49:12;;;;;;;8.63;1.00;;;14.60;99.90;;;;;;6272657;22;20359;-84
2022/10/24 06:51:38;;;;;;;6.60;1.25;;;14.60;99.90;;;;;;6245409;22;20509;-85
2022/10/24 06:54:04;;;;;;;8.00;1.58;;;14.50;99.90;;;;;;6245940;22;20019;-84
2022/10/24 06:56:29;;;;;;;6.00;1.50;;;14.50;99.90;;;;;;6219556;22;20016;-84
2022/10/24 06:58:55;;;;;;;8.48;1.75;;;14.60;99.90;;;;;;6243625;22;20011;-84
2022/10/24 07:01:23;;;;;;;8.82;1.60;;;14.50;99.90;;;;;;6218135;22;20039;-85
2022/10/24 07:03:50;;;;;;;6.30;1.20;;;14.50;99.90;;;;;;6243200;22;20007;-84
2022/10/24 07:06:17;;;;;;;6.50;1.45;;;14.50;99.90;;;;;;6243343;22;20015;-85
2022/10/24 07:08:43;;;;;;;7.05;1.30;;;14.50;99.90;;;;;;6243288;22;20024;-84
2022/10/24 07:11:09;;;;;;;6.07;1.60;;;14.50;99.90;;;;;;6243688;22;20087;-85
2022/10/24 07:13:34;;;;;;;7.53;1.50;;;14.50;99.90;;;;;;6220345;22;20085;-84
2022/10/24 07:16:00;;;;;;;8.65;1.30;;;14.60;99.90;;;;;;6273143;22;20015;-84
2022/10/24 07:18:26;;;;;;;6.55;1.48;;;14.60;99.90;;;;;;6273134;22;20019;-84
2022/10/24 07:20:51;;;;;;;8.65;1.75;;;14.70;99.90;;;;;;6219976;22;20436;-84
2022/10/24 07:23:17;;;;;;;8.38;1.20;;;14.80;99.90;;;;;;6272724;22;20101;-85
2022/10/24 07:25:43;;;;;;;6.43;1.40;;;14.80;99.90;;;;;;6219828;22;20012;-84
2022/10/24 07:28:10;;;;;;;5.47;1.20;;;14.90;99.90;;;;;;6245841;22;20008;-85
2022/10/24 07:30:36;;;;;;;8.23;1.50;;;14.90;99.90;;;;;;6272882;22;20065;-85
2022/10/24 07:33:03;;;;;;;9.52;1.60;;;14.90;99.90;;;;;;6272608;22;20023;-85
2022/10/24 07:35:28;;;;;;;9.13;1.55;;;15.00;99.90;;;;;;6272332;22;20090;-84
2022/10/24 07:37:54;;;;;;;7.28;1.38;;;14.90;99.90;;;;;;6272296;22;20499;-84
2022/10/24 07:40:20;;;;;;;8.15;1.30;;;15.00;99.90;;;;;;6245043;22;20012;-84
2022/10/24 07:42:45;;;;;;;10.45;1.20;;;15.00;99.90;;;;;;6273075;22;20427;-84
2022/10/24 07:45:11;;;;;;;6.25;1.23;;;15.00;99.90;;;;;;6245016;22;20341;-85
2022/10/24 07:47:37;;;;;;;12.00;1.60;;;15.10;99.90;;;;;;6245877;22;20011;-84
2022/10/24 07:50:03;;;;;;;7.72;1.27;;;15.20;99.90;;;;;;6219763;22;20098;-85
2022/10/24 07:52:29;;;;;;;7.00;1.27;;;15.30;99.90;;;;;;6218921;22;20058;-84
2022/10/24 07:54:54;;;;;;;5.80;1.13;;;15.40;99.90;;;;;;6245125;22;20297;-85
2022/10/24 07:57:21;;;;;;;8.25;1.20;;;15.50;99.90;;;;;;6272495;22;20061;-85
2022/10/24 07:59:46;;;;;;;8.88;1.38;;;15.40;99.90;;;;;;6272661;22;20011;-85
2022/10/24 08:02:13;;;;;;;6.78;1.30;;;15.50;99.90;;;;;;6245193;22;20442;-85
2022/10/24 08:04:39;;;;;;;4.70;1.10;;;15.50;99.90;;;;;;6272202;22;20089;-84
2022/10/24 08:07:12;;;;;;;7.28;1.38;;;15.60;99.90;;;;;;6245172;22;20011;-83
2022/10/24 08:09:42;;;;;;;8.82;1.10;;;15.70;99.90;;;;;;6272658;22;20042;-83
2022/10/24 08:12:08;;;;;;;6.55;1.23;;;15.80;99.90;;;;;;6272383;22;20069;-85
2022/10/24 08:14:36;;;;;;;9.93;1.52;;;15.80;99.90;;;;;;6244896;22;20799;-84
2022/10/24 08:17:03;;;;;;;6.15;1.33;;;15.80;99.90;;;;;;6272277;22;20015;-84
2022/10/24 08:19:29;;;;;;;4.93;1.00;;;15.80;99.90;;;;;;6271091;22;20506;-83
2022/10/24 08:21:55;;;;;;;4.65;0.90;;;15.90;99.90;;;;;;6244535;22;20015;-83
2022/10/24 08:24:20;;;;;;;6.35;0.90;;;15.70;99.90;;;;;;6272080;22;20355;-83
2022/10/24 08:26:46;;;;;;;6.68;1.25;;;15.80;99.90;;;;;;6272201;22;20093;-83
2022/10/24 08:29:13;;;;;;;5.88;1.00;;;15.80;99.90;;;;;;6272364;22;20020;-83
2022/10/24 08:31:39;;;;;;;8.45;0.95;;;15.90;99.90;;;;;;6244673;22;20084;-84
2022/10/24 08:34:05;;;;;;;9.52;1.20;;;15.90;99.90;;;;;;6271915;22;20062;-85
2022/10/24 08:36:34;;;;;;;13.68;1.30;;;16.10;99.90;;;;;;6239305;23;20321;-85
2022/10/24 08:39:00;;;;;;;9.18;1.75;;;16.00;99.90;;;;;;6239476;23;20405;-84
2022/10/24 08:41:36;;;;;;;7.40;0.90;;;16.20;99.90;;;;;;6214263;23;20019;-85
2022/10/24 08:44:13;;;;;;;8.55;1.30;;;16.10;99.90;;;;;;6240554;22;20023;-85
2022/10/24 08:46:53;;;;;;;7.97;1.52;;;16.40;99.90;;;;;;6240440;22;20035;-85
2022/10/24 08:49:47;;;;;;;9.68;1.48;;;16.10;99.90;;;;;;6241120;22;20436;-85
2022/10/24 08:52:35;;;;;;;8.18;1.55;;;16.20;99.90;;;;;;6241371;22;20012;-85
2022/10/24 08:55:37;;;;;;;7.30;1.20;;;16.20;99.90;;;;;;6239489;23;20429;-85
2022/10/24 08:58:04;;;;;;;6.40;1.05;;;16.20;99.90;;;;;;6237291;23;20020;-85
2022/10/24 09:00:42;;;;;;;8.77;1.27;;;16.20;99.90;;;;;;6239647;23;20043;-85
2022/10/24 09:03:35;;;;;;;8.35;2.20;;;16.30;99.90;;;;;;6239032;23;20091;-85
2022/10/24 09:06:23;;;;;;;8.82;1.77;;;16.30;99.90;;;;;;6214439;23;20345;-85
2022/10/24 09:08:53;;;;;;;8.35;1.27;;;16.40;99.90;;;;;;6240282;23;20392;-85
2022/10/24 09:11:56;;;;;;;5.75;1.15;;;16.50;99.90;;;;;;6239953;23;20372;-84
2022/10/24 09:14:26;;;;;;;6.95;1.20;;;16.50;99.90;;;;;;6241614;23;20054;-85
2022/10/24 09:17:16;;;;;;;6.88;0.90;;;16.60;99.90;;;;;;6213638;23;20016;-85
2022/10/24 09:19:53;;;;;;;7.50;1.30;;;16.60;99.90;;;;;;6241341;23;20027;-83
2022/10/24 09:22:21;;;;;;;10.05;1.42;;;16.70;99.90;;;;;;6241833;22;20380;-84
2022/10/24 09:25:02;;;;;;;7.07;1.33;;;16.80;99.90;;;;;;6241362;22;20048;-83
2022/10/24 09:27:33;;;;;;;9.05;1.30;;;16.80;99.90;;;;;;6240679;23;20090;-84
2022/10/24 09:29:59;;;;;;;7.28;1.20;;;16.90;99.90;;;;;;6243435;22;20019;-83
2022/10/24 09:32:31;;;;;;;7.82;1.25;;;16.90;99.90;;;;;;6242611;22;20564;-83
2022/10/24 09:35:04;;;;;;;6.03;1.08;;;16.90;99.90;;;;;;6216895;23;20020;-83
2022/10/24 09:37:40;;;;;;;8.38;1.10;;;16.90;99.90;;;;;;6241807;23;20012;-83
2022/10/24 09:40:26;;;;;;;7.20;1.20;;;16.90;99.90;;;;;;6241628;23;20012;-83
2022/10/24 09:42:54;;;;;;;11.20;1.27;;;16.80;99.90;;;;;;6242685;23;20019;-82
2022/10/24 09:45:54;;;;;;;7.00;1.50;;;16.80;99.90;;;;;;6242043;23;20015;-83
2022/10/24 09:48:29;;;;;;;9.57;1.27;;;16.70;99.90;;;;;;6234637;22;20087;-82
2022/10/24 09:50:55;;;;;;;6.63;0.85;;;16.80;99.90;;;;;;6243419;22;20023;-82
2022/10/24 09:53:38;;;;;;;8.05;1.38;;;17.40;99.90;;;;;;6241338;23;20016;-82
2022/10/24 09:56:13;;;;;;;7.43;1.15;;;17.20;99.90;;;;;;6242758;22;20066;-82
2022/10/24 09:58:39;;;;;;;5.78;1.00;;;17.30;99.90;;;;;;6243232;22;20091;-84
2022/10/24 10:01:18;;;;;;;5.68;1.02;;;17.40;99.90;;;;;;6240757;23;20008;-84
2022/10/24 10:04:03;;;;;;;7.10;1.20;;;17.40;99.90;;;;;;6240884;23;20015;-84
2022/10/24 10:06:31;;;;;;;5.60;1.10;;;17.50;99.90;;;;;;6243246;22;20016;-84
2022/10/24 10:08:57;;;;;;;6.03;1.10;;;17.30;99.90;;;;;;6240821;23;20023;-84
2022/10/24 10:11:26;;;;;;;9.35;1.30;;;17.30;99.90;;;;;;6241265;23;20027;-83
2022/10/24 10:13:54;;;;;;;4.82;0.82;;;17.30;99.90;;;;;;6242630;22;20011;-83
2022/10/24 10:16:33;;;;;;;6.72;1.10;;;17.30;99.90;;;;;;6241466;23;20105;-83
2022/10/24 10:19:19;;;;;;;6.93;1.23;;;17.30;99.90;;;;;;6215687;23;20100;-83
2022/10/24 10:22:04;;;;;;;6.88;1.52;;;17.30;99.90;;;;;;6240998;23;20345;-83
2022/10/24 10:24:38;;;;;;;4.75;1.00;;;17.30;99.90;;;;;;6241237;23;20034;-85
2022/10/24 10:27:35;;;;;;;10.05;1.17;;;17.30;99.90;;;;;;6241361;23;20443;-87
2022/10/24 10:30:15;;;;;;;5.35;0.90;;;17.30;99.90;;;;;;6242171;22;20023;-86
2022/10/24 10:33:17;;;;;;;9.18;1.38;;;17.20;99.90;;;;;;6241036;23;20016;-88
2022/10/24 10:36:08;;;;;;;7.20;1.17;;;17.10;99.90;;;;;;6240674;23;20420;-86
2022/10/24 10:39:08;;;;;;;5.78;0.80;;;17.00;99.90;;;;;;6241233;23;20095;-85
2022/10/24 10:41:48;;;;;;;10.70;0.90;;;17.10;99.90;;;;;;6218719;22;20043;-86
2022/10/24 10:44:39;;;;;;;11.25;1.40;;;17.10;99.90;;;;;;6243213;22;20014;-86
2022/10/24 10:47:34;;;;;;;6.57;1.40;;;17.20;99.90;;;;;;6243604;22;20384;-87
2022/10/24 10:50:01;;;;;;;8.32;1.45;;;17.30;99.90;;;;;;6243972;22;20046;-87
2022/10/24 10:52:44;;;;;;;4.60;1.08;;;17.40;99.90;;;;;;6243341;22;20012;-87
2022/10/24 10:55:33;;;;;;;9.18;1.20;;;17.60;99.90;;;;;;6244510;22;20016;-87
2022/10/24 10:58:14;;;;;;;7.35;0.90;;;17.80;99.90;;;;;;6243543;22;20012;-86
2022/10/24 11:00:50;;;;;;;6.00;0.95;;;17.90;99.90;;;;;;6243958;23;20378;-87
2022/10/24 11:03:31;;;;;;;5.22;0.77;;;17.90;99.90;;;;;;6241954;23;20008;-87
2022/10/24 11:06:09;;;;;;;6.80;0.90;;;17.90;99.90;;;;;;6216865;23;20012;-86
2022/10/24 11:09:12;;;;;;;5.13;1.00;;;18.00;99.90;;;;;;6243766;23;20382;-86
2022/10/24 11:11:44;;;;;;;7.80;0.73;;;18.00;99.90;;;;;;6243086;23;20024;-86
2022/10/24 11:14:35;;;;;;;7.75;0.82;;;18.10;99.90;;;;;;6241547;23;20032;-86
2022/10/24 11:17:15;;;;;;;11.05;1.40;;;18.10;99.90;;;;;;6241772;23;20272;-85
2022/10/24 11:20:04;;;;;;;9.27;0.80;;;18.20;99.90;;;;;;6242954;22;20440;-86
2022/10/24 11:22:54;;;;;;;6.32;0.98;;;18.30;99.90;;;;;;6243454;22;20008;-86
2022/10/24 11:26:04;;;;;;;6.13;1.65;;;18.50;99.90;;;;;;6241444;22;20009;-86
2022/10/24 11:28:42;;;;;;;6.28;1.00;;;18.40;99.90;;;;;;6235435;22;20016;-86
2022/10/24 11:31:43;;;;;;;7.85;1.10;;;18.20;99.90;;;;;;6241095;23;20023;-86
2022/10/24 11:34:08;;;;;;;7.15;0.82;;;18.10;99.90;;;;;;6221747;23;20016;-87
2022/10/24 11:36:52;;;;;;;8.90;1.10;;;18.00;99.90;;;;;;6253228;22;20458;-86
2022/10/24 11:39:43;;;;;;;3.63;1.20;;;17.90;99.90;;;;;;6274380;22;20031;-87
2022/10/24 11:42:32;;;;;;;3.17;0.65;;;17.80;99.90;;;;;;6274249;22;20092;-88
2022/10/24 11:45:10;;;;;;;4.45;1.08;;;17.70;99.90;;;;;;6247014;22;20012;-88
2022/10/24 11:48:12;;;;;;;6.55;0.95;;;17.70;99.90;;;;;;6246400;22;20020;-88
2022/10/24 11:51:01;;;;;;;5.50;0.73;;;17.70;99.90;;;;;;6273241;22;20087;-88
2022/10/24 11:53:30;;;;;;;7.28;1.42;;;17.70;99.90;;;;;;6273227;22;20428;-84
2022/10/24 11:56:01;;;;;;;4.00;0.98;;;17.60;99.90;;;;;;6244975;22;20019;-87
2022/10/24 11:58:30;;;;;;;4.72;0.90;;;17.50;99.90;;;;;;6273424;22;20019;-88
2022/10/24 12:01:46;;;;;;;6.53;0.80;;;17.50;99.90;;;;;;6246241;22;20061;-88
2022/10/24 12:04:26;;;;;;;5.22;0.80;;;17.40;99.90;;;;;;6199467;22;20012;-87
2022/10/24 12:07:29;;;;;;;4.72;0.75;;;17.40;99.90;;;;;;6273190;22;20015;-87
2022/10/24 12:09:55;;;;;;;4.50;0.80;;;17.40;99.90;;;;;;6271648;22;20026;-87
2022/10/24 12:13:02;;;;;;;8.35;0.90;;;17.40;99.90;;;;;;6274503;22;20007;-87
2022/10/24 12:15:30;;;;;;;9.70;1.42;;;17.30;99.90;;;;;;6272729;22;20268;-86
2022/10/24 12:18:04;;;;;;;4.30;0.73;;;17.20;99.90;;;;;;6273154;22;20071;-86
2022/10/24 12:20:30;;;;;;;4.83;0.60;;;17.30;99.90;;;;;;6273036;22;20121;-86
2022/10/24 12:22:57;;;;;;;5.22;1.02;;;17.30;99.90;;;;;;6245539;22;20455;-85
2022/10/24 12:25:28;;;;;;;6.07;0.90;;;17.30;99.90;;;;;;6272961;22;20034;-85
2022/10/24 12:27:57;;;;;;;7.18;1.08;;;17.30;99.90;;;;;;6273713;22;20014;-86
2022/10/24 12:30:26;;;;;;;5.40;0.70;;;17.30;99.90;;;;;;6273590;22;20047;-86
2022/10/24 12:33:11;;;;;;;3.75;0.90;;;17.20;99.90;;;;;;6273459;22;20008;-86
2022/10/24 12:35:39;;;;;;;6.68;1.10;;;17.30;99.90;;;;;;6273455;22;20051;-87
2022/10/24 12:38:37;;;;;;;7.55;0.90;;;17.40;99.90;;;;;;6272287;22;20018;-86
2022/10/24 12:41:08;;;;;;;7.57;0.88;;;17.40;99.90;;;;;;6271833;22;20095;-87
2022/10/24 12:43:47;;;;;;;4.85;0.93;;;17.30;99.90;;;;;;6272914;22;20012;-86
2022/10/24 12:46:16;;;;;;;5.15;0.90;;;17.30;99.90;;;;;;6245410;22;20092;-85
2022/10/24 12:48:42;;;;;;;4.50;0.80;;;17.20;99.90;;;;;;6272923;22;20021;-85
2022/10/24 12:51:28;;;;;;;4.85;1.00;;;17.20;99.90;;;;;;6273379;22;20573;-86
2022/10/24 12:53:59;;;;;;;7.82;1.13;;;17.20;99.90;;;;;;6271620;22;20012;-85
2022/10/24 12:56:25;;;;;;;7.00;0.93;;;17.20;99.90;;;;;;6245795;22;20321;-85
2022/10/24 12:58:59;;;;;;;4.97;0.90;;;17.10;99.90;;;;;;6245866;22;20158;-85
2022/10/24 13:01:33;;;;;;;6.15;1.02;;;17.10;99.90;;;;;;6272771;22;20015;-85
2022/10/24 13:04:20;;;;;;;4.68;0.82;;;17.00;99.90;;;;;;6273141;22;20012;-85
2022/10/24 13:07:07;;;;;;;8.35;0.90;;;16.90;99.90;;;;;;6245703;22;20020;-85
2022/10/24 13:09:58;;;;;;;3.22;0.75;;;16.90;99.90;;;;;;6245532;22;20154;-85